Hovedside
METAR-TAF:

METAR-TAF

Lufthavner :

Linköping, Sverige

Linköping lufthavn

breddegrad: 58-24N, lengdegrad: 015-41E, høyde over havet: 52 m

Gjeldene værobservasjon

Denne rapporten ble laget for 12 minutter siden, klokken 21:50 UTC
Vind 3 kt fra Øst-sørøst
Temperatur 14°C
Luftfuktighet 100%
Trykk 1008 hPa
Sikt: 9000 m
dis

METAR: ESSL 182150Z AUTO 12003KT 9000 BR BKN140/// 14/14 Q1008

Tid: 00:02 (22:02 UTC)

Varsel

Denne rapporten ble laget for 4 timer og 32 minutter siden, klokken 17:30 UTC
Varsel gyldig fra 18. klokken 18 UTC til 18. klokken 22 UTC
Vind 4 kt fra Sør
Sikt 10 km eller mer
ingen skyer under 1500 m og ingen bygeskyer

TAF: ESSL 181730Z 1818/1822 18004KT CAVOK

Værobservasjoner og værvarsel for over 4000 flyplasser (METAR- og TAF-rapporter).

Tilgjengelige stasjoner er representert av de røde og gule prikkene på kartet.

Hold musepekeren over prikken for å se navnet på stasjonen.

Klikk så for å se værobservasjoner og -varsler.

For å forandre kartet kan du klikke på den grønne knappen med svart kryss for å zoome inn, på den grønne knappen med strek for å zoome ut, eller på de grønne pilene for å se tilstøtende kart.


METAR-TAF: